sensor_id;sensor_type;location;lat;lon;timestamp;temperature;humidity
9965;DHT22;5023;53.554;9.964;2023-12-22T00:01:28;6.50;99.90
9965;DHT22;5023;53.554;9.964;2023-12-22T00:06:31;6.50;99.90
9965;DHT22;5023;53.554;9.964;2023-12-22T00:11:34;6.40;99.90
9965;DHT22;5023;53.554;9.964;2023-12-22T00:16:37;6.40;99.90
9965;DHT22;5023;53.554;9.964;2023-12-22T00:21:39;6.40;99.90
9965;DHT22;5023;53.554;9.964;2023-12-22T00:26:44;6.50;99.90
9965;DHT22;5023;53.554;9.964;2023-12-22T00:31:46;6.40;99.90
9965;DHT22;5023;53.554;9.964;2023-12-22T00:36:51;6.40;99.90
9965;DHT22;5023;53.554;9.964;2023-12-22T00:41:54;6.20;99.90
9965;DHT22;5023;53.554;9.964;2023-12-22T00:46:56;6.10;99.90
9965;DHT22;5023;53.554;9.964;2023-12-22T00:51:58;5.90;99.90
9965;DHT22;5023;53.554;9.964;2023-12-22T00:57:01;5.80;99.90
9965;DHT22;5023;53.554;9.964;2023-12-22T01:02:03;5.70;99.90
9965;DHT22;5023;53.554;9.964;2023-12-22T01:07:07;5.70;99.90
9965;DHT22;5023;53.554;9.964;2023-12-22T01:12:10;5.60;99.90
9965;DHT22;5023;53.554;9.964;2023-12-22T01:17:12;5.60;99.90
9965;DHT22;5023;53.554;9.964;2023-12-22T01:22:14;5.50;99.90
9965;DHT22;5023;53.554;9.964;2023-12-22T01:27:17;5.40;99.90
9965;DHT22;5023;53.554;9.964;2023-12-22T01:32:20;5.40;99.90
9965;DHT22;5023;53.554;9.964;2023-12-22T01:37:22;4.90;99.90
9965;DHT22;5023;53.554;9.964;2023-12-22T01:42:26;4.50;99.90
9965;DHT22;5023;53.554;9.964;2023-12-22T01:47:28;4.40;99.90
9965;DHT22;5023;53.554;9.964;2023-12-22T01:52:30;3.80;99.90
9965;DHT22;5023;53.554;9.964;2023-12-22T01:57:33;3.70;99.90
9965;DHT22;5023;53.554;9.964;2023-12-22T02:02:36;3.50;99.90
9965;DHT22;5023;53.554;9.964;2023-12-22T02:07:41;3.50;99.90
9965;DHT22;5023;53.554;9.964;2023-12-22T02:12:44;3.50;99.90
9965;DHT22;5023;53.554;9.964;2023-12-22T02:17:49;3.60;99.90
9965;DHT22;5023;53.554;9.964;2023-12-22T02:22:55;3.80;99.90
9965;DHT22;5023;53.554;9.964;2023-12-22T02:28:01;3.90;99.90
9965;DHT22;5023;53.554;9.964;2023-12-22T02:33:06;3.90;99.90
9965;DHT22;5023;53.554;9.964;2023-12-22T02:38:12;4.10;99.90
9965;DHT22;5023;53.554;9.964;2023-12-22T02:43:14;4.10;99.90
9965;DHT22;5023;53.554;9.964;2023-12-22T02:48:16;4.20;99.90
9965;DHT22;5023;53.554;9.964;2023-12-22T02:53:19;4.20;99.90
9965;DHT22;5023;53.554;9.964;2023-12-22T02:58:21;4.30;99.90
9965;DHT22;5023;53.554;9.964;2023-12-22T03:03:23;4.30;99.90
9965;DHT22;5023;53.554;9.964;2023-12-22T03:08:26;4.00;99.90
9965;DHT22;5023;53.554;9.964;2023-12-22T03:13:28;3.90;99.90
9965;DHT22;5023;53.554;9.964;2023-12-22T03:18:30;3.90;99.90
9965;DHT22;5023;53.554;9.964;2023-12-22T03:23:33;3.70;99.90
9965;DHT22;5023;53.554;9.964;2023-12-22T03:28:35;3.80;99.90
9965;DHT22;5023;53.554;9.964;2023-12-22T03:33:37;3.80;99.90
9965;DHT22;5023;53.554;9.964;2023-12-22T03:38:40;4.00;99.90
9965;DHT22;5023;53.554;9.964;2023-12-22T03:43:42;3.80;99.90
9965;DHT22;5023;53.554;9.964;2023-12-22T03:48:44;3.80;99.90
9965;DHT22;5023;53.554;9.964;2023-12-22T03:53:48;3.90;99.90
9965;DHT22;5023;53.554;9.964;2023-12-22T03:58:50;4.00;99.90
9965;DHT22;5023;53.554;9.964;2023-12-22T04:03:52;4.10;99.90
9965;DHT22;5023;53.554;9.964;2023-12-22T04:08:55;4.20;99.90
9965;DHT22;5023;53.554;9.964;2023-12-22T04:13:57;4.30;99.90
9965;DHT22;5023;53.554;9.964;2023-12-22T04:18:59;4.40;99.90
9965;DHT22;5023;53.554;9.964;2023-12-22T04:24:02;4.40;99.90
9965;DHT22;5023;53.554;9.964;2023-12-22T04:29:05;4.40;99.90
9965;DHT22;5023;53.554;9.964;2023-12-22T04:34:06;4.40;99.90
9965;DHT22;5023;53.554;9.964;2023-12-22T04:39:10;4.40;99.90
9965;DHT22;5023;53.554;9.964;2023-12-22T04:44:12;4.50;99.90
9965;DHT22;5023;53.554;9.964;2023-12-22T04:49:14;4.60;99.90
9965;DHT22;5023;53.554;9.964;2023-12-22T04:54:17;4.70;99.90
9965;DHT22;5023;53.554;9.964;2023-12-22T04:59:19;4.80;99.90
9965;DHT22;5023;53.554;9.964;2023-12-22T05:04:21;4.90;99.90
9965;DHT22;5023;53.554;9.964;2023-12-22T05:09:24;4.90;99.90
9965;DHT22;5023;53.554;9.964;2023-12-22T05:14:26;5.00;99.90
9965;DHT22;5023;53.554;9.964;2023-12-22T05:19:28;5.10;99.90
9965;DHT22;5023;53.554;9.964;2023-12-22T05:24:31;5.00;99.90
9965;DHT22;5023;53.554;9.964;2023-12-22T05:29:33;4.70;99.90
9965;DHT22;5023;53.554;9.964;2023-12-22T05:34:35;4.50;99.90
9965;DHT22;5023;53.554;9.964;2023-12-22T05:39:39;4.20;99.90
9965;DHT22;5023;53.554;9.964;2023-12-22T05:44:41;4.20;99.90
9965;DHT22;5023;53.554;9.964;2023-12-22T05:49:43;4.10;99.90
9965;DHT22;5023;53.554;9.964;2023-12-22T05:54:47;4.00;99.90
9965;DHT22;5023;53.554;9.964;2023-12-22T05:59:49;3.90;99.90
9965;DHT22;5023;53.554;9.964;2023-12-22T06:04:51;3.70;99.90
9965;DHT22;5023;53.554;9.964;2023-12-22T06:09:54;3.60;99.90
9965;DHT22;5023;53.554;9.964;2023-12-22T06:14:56;3.60;99.90
9965;DHT22;5023;53.554;9.964;2023-12-22T06:19:58;3.50;99.90
9965;DHT22;5023;53.554;9.964;2023-12-22T06:25:02;3.60;99.90
9965;DHT22;5023;53.554;9.964;2023-12-22T06:30:08;3.60;99.90
9965;DHT22;5023;53.554;9.964;2023-12-22T06:35:10;3.70;99.90
9965;DHT22;5023;53.554;9.964;2023-12-22T06:40:14;3.90;99.90
9965;DHT22;5023;53.554;9.964;2023-12-22T06:45:16;4.10;99.90
9965;DHT22;5023;53.554;9.964;2023-12-22T06:50:18;4.30;99.90
9965;DHT22;5023;53.554;9.964;2023-12-22T06:55:21;4.50;99.90
9965;DHT22;5023;53.554;9.964;2023-12-22T07:00:23;4.50;99.90
9965;DHT22;5023;53.554;9.964;2023-12-22T07:05:34;4.60;99.90
9965;DHT22;5023;53.554;9.964;2023-12-22T07:10:38;4.60;99.90
9965;DHT22;5023;53.554;9.964;2023-12-22T07:15:40;4.70;99.90
9965;DHT22;5023;53.554;9.964;2023-12-22T07:20:42;4.60;99.90
9965;DHT22;5023;53.554;9.964;2023-12-22T07:25:45;4.60;99.90
9965;DHT22;5023;53.554;9.964;2023-12-22T07:30:47;4.70;99.90
9965;DHT22;5023;53.554;9.964;2023-12-22T07:35:49;4.60;99.90
9965;DHT22;5023;53.554;9.964;2023-12-22T07:40:52;4.70;99.90
9965;DHT22;5023;53.554;9.964;2023-12-22T07:45:54;4.70;99.90
9965;DHT22;5023;53.554;9.964;2023-12-22T07:50:56;4.60;99.90
9965;DHT22;5023;53.554;9.964;2023-12-22T07:55:59;4.10;99.90
9965;DHT22;5023;53.554;9.964;2023-12-22T08:01:01;4.00;99.90
9965;DHT22;5023;53.554;9.964;2023-12-22T08:06:04;4.00;99.90
9965;DHT22;5023;53.554;9.964;2023-12-22T08:11:07;4.00;99.90
9965;DHT22;5023;53.554;9.964;2023-12-22T08:16:09;4.20;99.90
9965;DHT22;5023;53.554;9.964;2023-12-22T08:21:11;4.20;99.90
9965;DHT22;5023;53.554;9.964;2023-12-22T08:26:14;4.00;99.90
9965;DHT22;5023;53.554;9.964;2023-12-22T08:31:17;3.50;99.90
9965;DHT22;5023;53.554;9.964;2023-12-22T08:36:20;3.30;99.90
9965;DHT22;5023;53.554;9.964;2023-12-22T08:41:24;3.40;99.90
9965;DHT22;5023;53.554;9.964;2023-12-22T08:46:27;3.60;99.90
9965;DHT22;5023;53.554;9.964;2023-12-22T08:51:30;3.80;99.90
9965;DHT22;5023;53.554;9.964;2023-12-22T08:56:33;4.10;99.90
9965;DHT22;5023;53.554;9.964;2023-12-22T09:01:36;4.10;99.90
9965;DHT22;5023;53.554;9.964;2023-12-22T09:06:37;4.20;99.90
9965;DHT22;5023;53.554;9.964;2023-12-22T09:11:41;4.30;99.90
9965;DHT22;5023;53.554;9.964;2023-12-22T09:16:43;4.40;99.90
9965;DHT22;5023;53.554;9.964;2023-12-22T09:21:46;4.50;99.90
9965;DHT22;5023;53.554;9.964;2023-12-22T09:26:49;4.60;99.90
9965;DHT22;5023;53.554;9.964;2023-12-22T09:31:52;4.80;99.90
9965;DHT22;5023;53.554;9.964;2023-12-22T09:36:54;4.90;99.90
9965;DHT22;5023;53.554;9.964;2023-12-22T09:41:58;5.00;99.90
9965;DHT22;5023;53.554;9.964;2023-12-22T09:47:03;5.10;99.90
9965;DHT22;5023;53.554;9.964;2023-12-22T09:52:06;5.10;99.90
9965;DHT22;5023;53.554;9.964;2023-12-22T09:57:10;5.10;99.90
9965;DHT22;5023;53.554;9.964;2023-12-22T10:02:13;5.20;99.90
9965;DHT22;5023;53.554;9.964;2023-12-22T10:07:16;5.20;99.90
9965;DHT22;5023;53.554;9.964;2023-12-22T10:12:20;5.30;99.90
9965;DHT22;5023;53.554;9.964;2023-12-22T10:17:23;5.30;99.90
9965;DHT22;5023;53.554;9.964;2023-12-22T10:22:26;5.40;99.90
9965;DHT22;5023;53.554;9.964;2023-12-22T10:27:30;5.50;99.90
9965;DHT22;5023;53.554;9.964;2023-12-22T10:32:32;5.40;99.90
9965;DHT22;5023;53.554;9.964;2023-12-22T10:37:34;5.50;99.90
9965;DHT22;5023;53.554;9.964;2023-12-22T10:42:39;5.40;99.90
9965;DHT22;5023;53.554;9.964;2023-12-22T10:47:41;5.20;99.90
9965;DHT22;5023;53.554;9.964;2023-12-22T10:52:49;4.80;99.90
9965;DHT22;5023;53.554;9.964;2023-12-22T10:57:53;4.60;99.90
9965;DHT22;5023;53.554;9.964;2023-12-22T11:03:00;4.90;99.90
9965;DHT22;5023;53.554;9.964;2023-12-22T11:08:03;4.40;99.90
9965;DHT22;5023;53.554;9.964;2023-12-22T11:13:10;4.30;99.90
9965;DHT22;5023;53.554;9.964;2023-12-22T11:18:15;4.30;99.90
9965;DHT22;5023;53.554;9.964;2023-12-22T11:23:17;4.40;99.90
9965;DHT22;5023;53.554;9.964;2023-12-22T11:28:22;4.50;99.90
9965;DHT22;5023;53.554;9.964;2023-12-22T11:33:25;4.20;99.90
9965;DHT22;5023;53.554;9.964;2023-12-22T11:38:29;4.10;99.90
9965;DHT22;5023;53.554;9.964;2023-12-22T11:43:33;4.00;99.90
9965;DHT22;5023;53.554;9.964;2023-12-22T11:48:37;4.00;99.90
9965;DHT22;5023;53.554;9.964;2023-12-22T11:53:40;3.90;99.90
9965;DHT22;5023;53.554;9.964;2023-12-22T11:58:44;4.00;99.90
9965;DHT22;5023;53.554;9.964;2023-12-22T12:03:52;4.00;99.90
9965;DHT22;5023;53.554;9.964;2023-12-22T12:08:55;4.20;99.90
9965;DHT22;5023;53.554;9.964;2023-12-22T12:14:07;4.40;99.90
9965;DHT22;5023;53.554;9.964;2023-12-22T12:19:12;4.60;99.90
9965;DHT22;5023;53.554;9.964;2023-12-22T12:24:14;4.60;99.90
9965;DHT22;5023;53.554;9.964;2023-12-22T12:29:17;4.60;99.90
9965;DHT22;5023;53.554;9.964;2023-12-22T12:34:20;4.60;99.90
9965;DHT22;5023;53.554;9.964;2023-12-22T12:39:25;4.60;99.90
9965;DHT22;5023;53.554;9.964;2023-12-22T12:44:32;4.70;99.90
9965;DHT22;5023;53.554;9.964;2023-12-22T12:49:34;4.70;99.90
9965;DHT22;5023;53.554;9.964;2023-12-22T12:54:36;4.80;99.90
9965;DHT22;5023;53.554;9.964;2023-12-22T12:59:45;4.90;99.90
9965;DHT22;5023;53.554;9.964;2023-12-22T13:04:47;5.00;99.90
9965;DHT22;5023;53.554;9.964;2023-12-22T13:09:48;5.10;99.90
9965;DHT22;5023;53.554;9.964;2023-12-22T13:14:52;5.10;99.90
9965;DHT22;5023;53.554;9.964;2023-12-22T13:19:54;5.20;99.90
9965;DHT22;5023;53.554;9.964;2023-12-22T13:24:56;5.20;99.90
9965;DHT22;5023;53.554;9.964;2023-12-22T13:30:00;5.30;99.90
9965;DHT22;5023;53.554;9.964;2023-12-22T13:35:02;5.40;99.90
9965;DHT22;5023;53.554;9.964;2023-12-22T13:40:08;5.40;99.90
9965;DHT22;5023;53.554;9.964;2023-12-22T13:45:12;5.40;99.90
9965;DHT22;5023;53.554;9.964;2023-12-22T13:50:14;5.50;99.90
9965;DHT22;5023;53.554;9.964;2023-12-22T13:55:17;5.50;99.90
9965;DHT22;5023;53.554;9.964;2023-12-22T14:00:27;5.60;99.90
9965;DHT22;5023;53.554;9.964;2023-12-22T14:05:30;5.60;99.90
9965;DHT22;5023;53.554;9.964;2023-12-22T14:10:31;5.70;99.90
9965;DHT22;5023;53.554;9.964;2023-12-22T14:15:35;5.70;99.90
9965;DHT22;5023;53.554;9.964;2023-12-22T14:20:37;5.60;99.90
9965;DHT22;5023;53.554;9.964;2023-12-22T14:25:39;5.60;99.90
9965;DHT22;5023;53.554;9.964;2023-12-22T14:30:42;5.50;99.90
9965;DHT22;5023;53.554;9.964;2023-12-22T14:41:41;5.40;99.90
9965;DHT22;5023;53.554;9.964;2023-12-22T14:46:44;5.30;99.90
9965;DHT22;5023;53.554;9.964;2023-12-22T14:51:46;5.30;99.90
9965;DHT22;5023;53.554;9.964;2023-12-22T14:56:52;5.30;99.90
9965;DHT22;5023;53.554;9.964;2023-12-22T15:01:55;5.30;99.90
9965;DHT22;5023;53.554;9.964;2023-12-22T15:06:57;5.20;99.90
9965;DHT22;5023;53.554;9.964;2023-12-22T15:11:59;5.20;99.90
9965;DHT22;5023;53.554;9.964;2023-12-22T15:17:02;5.20;99.90
9965;DHT22;5023;53.554;9.964;2023-12-22T15:22:04;5.30;99.90
9965;DHT22;5023;53.554;9.964;2023-12-22T15:27:06;5.30;99.90
9965;DHT22;5023;53.554;9.964;2023-12-22T15:32:10;5.30;99.90
9965;DHT22;5023;53.554;9.964;2023-12-22T15:37:12;5.30;99.90
9965;DHT22;5023;53.554;9.964;2023-12-22T15:42:14;5.30;99.90
9965;DHT22;5023;53.554;9.964;2023-12-22T15:47:17;5.30;99.90
9965;DHT22;5023;53.554;9.964;2023-12-22T15:52:19;5.30;99.90
9965;DHT22;5023;53.554;9.964;2023-12-22T15:57:21;5.40;99.90
9965;DHT22;5023;53.554;9.964;2023-12-22T16:02:24;5.40;99.90
9965;DHT22;5023;53.554;9.964;2023-12-22T16:07:26;5.40;99.90
9965;DHT22;5023;53.554;9.964;2023-12-22T16:12:28;5.30;99.90
9965;DHT22;5023;53.554;9.964;2023-12-22T16:17:31;5.20;99.90
9965;DHT22;5023;53.554;9.964;2023-12-22T16:22:33;5.20;99.90
9965;DHT22;5023;53.554;9.964;2023-12-22T16:27:35;5.20;99.90
9965;DHT22;5023;53.554;9.964;2023-12-22T16:32:38;5.10;99.90
9965;DHT22;5023;53.554;9.964;2023-12-22T16:37:41;4.90;99.90
9965;DHT22;5023;53.554;9.964;2023-12-22T16:42:45;4.80;99.90
9965;DHT22;5023;53.554;9.964;2023-12-22T16:47:48;4.80;99.90
9965;DHT22;5023;53.554;9.964;2023-12-22T16:52:50;4.80;99.90
9965;DHT22;5023;53.554;9.964;2023-12-22T16:57:52;4.80;99.90
9965;DHT22;5023;53.554;9.964;2023-12-22T17:02:57;4.80;99.90
9965;DHT22;5023;53.554;9.964;2023-12-22T17:07:59;4.80;99.90
9965;DHT22;5023;53.554;9.964;2023-12-22T17:13:00;4.90;99.90
9965;DHT22;5023;53.554;9.964;2023-12-22T17:18:04;4.80;99.90
9965;DHT22;5023;53.554;9.964;2023-12-22T17:23:06;5.00;99.90
9965;DHT22;5023;53.554;9.964;2023-12-22T17:28:08;5.00;99.90
9965;DHT22;5023;53.554;9.964;2023-12-22T17:33:11;4.90;99.90
9965;DHT22;5023;53.554;9.964;2023-12-22T17:38:13;4.80;99.90
9965;DHT22;5023;53.554;9.964;2023-12-22T17:43:15;4.70;99.90
9965;DHT22;5023;53.554;9.964;2023-12-22T17:48:18;4.70;99.90
9965;DHT22;5023;53.554;9.964;2023-12-22T17:53:20;4.60;99.90
9965;DHT22;5023;53.554;9.964;2023-12-22T17:58:25;4.70;99.90
9965;DHT22;5023;53.554;9.964;2023-12-22T18:03:28;4.90;99.90
9965;DHT22;5023;53.554;9.964;2023-12-22T18:08:30;4.90;99.90
9965;DHT22;5023;53.554;9.964;2023-12-22T18:13:32;5.00;99.90
9965;DHT22;5023;53.554;9.964;2023-12-22T18:18:37;5.00;99.90
9965;DHT22;5023;53.554;9.964;2023-12-22T18:23:39;5.00;99.90
9965;DHT22;5023;53.554;9.964;2023-12-22T18:28:41;4.90;99.90
9965;DHT22;5023;53.554;9.964;2023-12-22T18:33:44;5.00;99.90
9965;DHT22;5023;53.554;9.964;2023-12-22T18:38:47;5.00;99.90
9965;DHT22;5023;53.554;9.964;2023-12-22T18:43:49;5.00;99.90
9965;DHT22;5023;53.554;9.964;2023-12-22T18:48:52;5.00;99.90
9965;DHT22;5023;53.554;9.964;2023-12-22T18:53:54;5.20;99.90
9965;DHT22;5023;53.554;9.964;2023-12-22T18:58:56;5.20;99.90
9965;DHT22;5023;53.554;9.964;2023-12-22T19:03:59;5.10;99.90
9965;DHT22;5023;53.554;9.964;2023-12-22T19:09:01;5.20;99.90
9965;DHT22;5023;53.554;9.964;2023-12-22T19:14:04;5.30;99.90
9965;DHT22;5023;53.554;9.964;2023-12-22T19:19:07;5.30;99.90
9965;DHT22;5023;53.554;9.964;2023-12-22T19:24:09;5.20;99.90
9965;DHT22;5023;53.554;9.964;2023-12-22T19:29:11;5.30;99.90
9965;DHT22;5023;53.554;9.964;2023-12-22T19:34:15;5.20;99.90
9965;DHT22;5023;53.554;9.964;2023-12-22T19:39:18;5.20;99.90
9965;DHT22;5023;53.554;9.964;2023-12-22T19:44:20;5.30;99.90
9965;DHT22;5023;53.554;9.964;2023-12-22T19:49:23;5.20;99.90
9965;DHT22;5023;53.554;9.964;2023-12-22T19:54:27;5.20;99.90
9965;DHT22;5023;53.554;9.964;2023-12-22T19:59:29;5.20;99.90
9965;DHT22;5023;53.554;9.964;2023-12-22T20:04:32;5.20;99.90
9965;DHT22;5023;53.554;9.964;2023-12-22T20:09:36;5.10;99.90
9965;DHT22;5023;53.554;9.964;2023-12-22T20:14:40;5.10;99.90
9965;DHT22;5023;53.554;9.964;2023-12-22T20:19:43;5.20;99.90
9965;DHT22;5023;53.554;9.964;2023-12-22T20:24:45;5.10;99.90
9965;DHT22;5023;53.554;9.964;2023-12-22T20:29:47;5.10;99.90
9965;DHT22;5023;53.554;9.964;2023-12-22T20:34:51;5.20;99.90
9965;DHT22;5023;53.554;9.964;2023-12-22T20:39:53;5.10;99.90
9965;DHT22;5023;53.554;9.964;2023-12-22T20:44:54;5.10;99.90
9965;DHT22;5023;53.554;9.964;2023-12-22T20:49:58;5.20;99.90
9965;DHT22;5023;53.554;9.964;2023-12-22T20:55:00;5.20;99.90
9965;DHT22;5023;53.554;9.964;2023-12-22T21:00:02;5.20;99.90
9965;DHT22;5023;53.554;9.964;2023-12-22T21:05:07;5.20;99.90
9965;DHT22;5023;53.554;9.964;2023-12-22T21:10:11;5.30;99.90
9965;DHT22;5023;53.554;9.964;2023-12-22T21:15:13;5.30;99.90
9965;DHT22;5023;53.554;9.964;2023-12-22T21:20:20;5.20;99.90
9965;DHT22;5023;53.554;9.964;2023-12-22T21:25:22;4.80;99.90
9965;DHT22;5023;53.554;9.964;2023-12-22T21:30:23;4.50;99.90
9965;DHT22;5023;53.554;9.964;2023-12-22T21:35:28;4.50;99.90
9965;DHT22;5023;53.554;9.964;2023-12-22T21:40:30;4.30;99.90
9965;DHT22;5023;53.554;9.964;2023-12-22T21:45:32;4.20;99.90
9965;DHT22;5023;53.554;9.964;2023-12-22T21:50:36;4.20;99.90
9965;DHT22;5023;53.554;9.964;2023-12-22T21:55:39;4.20;99.90
9965;DHT22;5023;53.554;9.964;2023-12-22T22:00:41;4.20;99.90
9965;DHT22;5023;53.554;9.964;2023-12-22T22:05:45;4.10;99.90
9965;DHT22;5023;53.554;9.964;2023-12-22T22:10:47;3.80;99.90
9965;DHT22;5023;53.554;9.964;2023-12-22T22:15:49;3.70;99.90
9965;DHT22;5023;53.554;9.964;2023-12-22T22:20:52;3.60;99.90
9965;DHT22;5023;53.554;9.964;2023-12-22T22:25:54;3.50;99.90
9965;DHT22;5023;53.554;9.964;2023-12-22T22:30:56;3.50;99.90
9965;DHT22;5023;53.554;9.964;2023-12-22T22:36:00;3.50;99.90
9965;DHT22;5023;53.554;9.964;2023-12-22T22:41:02;3.50;99.90
9965;DHT22;5023;53.554;9.964;2023-12-22T22:46:04;3.50;99.90
9965;DHT22;5023;53.554;9.964;2023-12-22T22:51:07;3.50;99.90
9965;DHT22;5023;53.554;9.964;2023-12-22T22:56:09;3.50;99.90
9965;DHT22;5023;53.554;9.964;2023-12-22T23:01:11;3.60;99.90
9965;DHT22;5023;53.554;9.964;2023-12-22T23:06:16;3.60;99.90
9965;DHT22;5023;53.554;9.964;2023-12-22T23:11:19;3.60;99.90
9965;DHT22;5023;53.554;9.964;2023-12-22T23:16:21;3.60;99.90
9965;DHT22;5023;53.554;9.964;2023-12-22T23:21:24;3.60;99.90
9965;DHT22;5023;53.554;9.964;2023-12-22T23:26:26;3.60;99.90
9965;DHT22;5023;53.554;9.964;2023-12-22T23:31:28;3.60;99.90
9965;DHT22;5023;53.554;9.964;2023-12-22T23:36:31;3.60;99.90
9965;DHT22;5023;53.554;9.964;2023-12-22T23:41:33;3.70;99.90
9965;DHT22;5023;53.554;9.964;2023-12-22T23:46:35;3.70;99.90
9965;DHT22;5023;53.554;9.964;2023-12-22T23:51:38;3.70;99.90
9965;DHT22;5023;53.554;9.964;2023-12-22T23:56:40;3.70;99.90
